Ana Sayfa
METAR-TAF:

METAR-TAF

Havaalanları :

Nouakchott, Moritanya

Enlem: 18-18-36N, Boylam: 015-58-11W, yükseklik: 3 m

Güncel hava durumu gözlemi

Rapor saat 07:00 UTC de 29 dakika önce yapıldı.
Rüzgar kuzeydan 6 kt
Sıcaklık 17°C
Nem 94%
Basınç 1014 hPa
Görüş mesafesi 10 km veya daha fazla
1500 m altında bulut yok ve kümülonimbus yok

METAR: GQNO 210700Z 35006KT CAVOK 17/16 Q1014 NOSIG

Saat: 07:29 (07:29 UTC)

Tahmin

Rapor saat 05:00 UTC de 2 saat ve 29 dakika önce yapıldı.
Ayın 21'si saat 06 UTC'den ayın 22'si saat 12 UTC'ye kadar geçerli Tahmin
Rüzgar kuzey/kuzeybatıdan 10 kt
Görüş mesafesi: 7000 m
Olasılık 40% :
Geçici
ayın 21'si saat 06 UTC'den ayın 21'si saat 08 UTC'ye kadar
800 ft yükseklikte parçalı çok bulutlu
Geçici
ayın 21'si saat 10 UTC'den ayın 21'si saat 14 UTC'ye kadar
Rüzgar kuzeydoğudan 10 kt

TAF: GQNO 210500Z 2106/2212 34010KT 7000 NSC PROB40 TEMPO 2106/2108 BKN008 TEMPO 2110/2114 04010KT

4.000'den fazla havaalanı için hava durumu gözlemleri ve tahminleri (METAR ve TAF raporları).

Kullanılabilir istasyonlar harita üzerinde sarı ve kırmızı noktalarla gösterilir.

İstasyonun adını görmek için fareyi noktanın üzerinde gezdirin.

Sonrasında hava gözlem ve tahminlerini görmek için tıklayın.

Haritayı değiştirmek için: yaklaştırmak için siyah artı işaretli yeşil düğmeye ve uzaklaştırmak için de eksi işaretli düğmeye hızla tıklayın; bitişik haritalar için yeşil okları kullanın.


METAR-TAF: